Time;durP1;ratioP1;P1;durP2;ratioP2;P2;SDS_P1;SDS_P2;PMS_P1;PMS_P2;Temp;Humidity;BMP_temperature;BMP_pressure;BME280_temperature;BME280_humidity;BME280_pressure;Samples;Min_cycle;Max_cycle;Signal;HPM_P1;HPM_P2
2023/05/05 00:01:07;;;;;;;12.27;6.45;;;8.50;76.30;;;;;;5092737;28;20020;-79
2023/05/05 00:03:36;;;;;;;7.65;5.63;;;8.40;74.70;;;;;;5083066;28;20175;-78
2023/05/05 00:06:03;;;;;;;7.30;5.28;;;8.40;74.40;;;;;;5072308;28;20017;-80
2023/05/05 00:08:28;;;;;;;6.60;5.38;;;8.40;74.30;;;;;;5073187;28;20386;-78
2023/05/05 00:10:55;;;;;;;13.02;7.22;;;8.50;74.30;;;;;;5072842;28;20033;-79
2023/05/05 00:13:21;;;;;;;19.95;10.05;;;8.50;75.70;;;;;;5073189;28;20535;-78
2023/05/05 00:15:48;;;;;;;37.28;17.90;;;8.50;76.50;;;;;;5072312;28;20021;-79
2023/05/05 00:18:15;;;;;;;52.08;22.52;;;8.40;76.90;;;;;;5071741;28;20024;-78
2023/05/05 00:20:42;;;;;;;54.90;24.42;;;8.40;77.20;;;;;;5073379;28;20028;-79
2023/05/05 00:23:07;;;;;;;75.93;33.22;;;8.30;76.10;;;;;;5072073;28;20025;-78
2023/05/05 00:25:33;;;;;;;89.22;36.88;;;8.30;76.50;;;;;;5072958;28;20039;-78
2023/05/05 00:27:59;;;;;;;60.13;27.35;;;8.30;78.10;;;;;;5072909;28;20021;-78
2023/05/05 00:30:26;;;;;;;104.30;41.55;;;8.30;78.70;;;;;;5075171;28;20028;-78
2023/05/05 00:32:53;;;;;;;108.55;44.55;;;8.20;78.90;;;;;;5072688;28;20031;-79
2023/05/05 00:35:18;;;;;;;120.20;52.78;;;8.20;78.90;;;;;;5072040;28;20389;-78
2023/05/05 00:37:44;;;;;;;112.53;48.78;;;8.10;79.50;;;;;;5072869;28;20024;-79
2023/05/05 00:40:10;;;;;;;70.88;34.33;;;8.10;78.90;;;;;;5073290;28;20048;-78
2023/05/05 00:42:39;;;;;;;28.30;15.05;;;8.00;78.00;;;;;;5073018;28;20021;-79
2023/05/05 00:45:05;;;;;;;19.90;11.98;;;8.00;77.70;;;;;;5072925;28;20031;-79
2023/05/05 00:47:31;;;;;;;15.18;9.18;;;7.90;77.70;;;;;;5073125;28;20025;-78
2023/05/05 00:49:56;;;;;;;16.55;9.75;;;7.90;79.00;;;;;;5072983;28;20037;-78
2023/05/05 00:52:22;;;;;;;32.97;22.80;;;7.90;80.20;;;;;;5072733;28;20031;-78
2023/05/05 00:54:48;;;;;;;58.75;30.67;;;7.80;80.40;;;;;;5071390;28;20025;-78
2023/05/05 00:57:14;;;;;;;76.55;35.40;;;7.70;80.80;;;;;;5072900;28;20032;-78
2023/05/05 00:59:40;;;;;;;66.32;29.92;;;7.70;81.30;;;;;;5072680;28;20016;-78
2023/05/05 01:02:06;;;;;;;28.83;15.45;;;7.60;81.40;;;;;;5072930;28;20025;-78
2023/05/05 01:04:31;;;;;;;42.15;18.88;;;7.60;80.50;;;;;;5071016;28;20032;-78
2023/05/05 01:07:21;;;;;;;29.83;14.93;;;7.60;80.30;;;;;;5071456;28;20021;-80
2023/05/05 01:10:15;;;;;;;12.93;6.60;;;7.50;80.20;;;;;;5072455;28;20119;-79
2023/05/05 01:13:15;;;;;;;8.73;6.18;;;7.50;78.70;;;;;;5063314;28;20031;-79
2023/05/05 01:16:19;;;;;;;10.88;6.75;;;7.40;78.10;;;;;;5071640;28;20016;-79
2023/05/05 01:18:48;;;;;;;13.07;8.18;;;7.40;78.50;;;;;;5053853;28;20051;-78
2023/05/05 01:21:36;;;;;;;15.20;9.30;;;7.40;80.30;;;;;;5072416;28;20020;-79
2023/05/05 01:24:39;;;;;;;18.60;11.70;;;7.30;81.70;;;;;;5067508;28;20063;-79
2023/05/05 01:27:30;;;;;;;17.13;11.50;;;7.30;83.10;;;;;;5075371;28;20033;-78
2023/05/05 01:30:34;;;;;;;18.98;11.40;;;7.30;83.30;;;;;;5075152;28;20405;-78
2023/05/05 01:33:07;;;;;;;18.00;11.68;;;7.20;83.70;;;;;;5076504;28;20032;-78
2023/05/05 01:35:40;;;;;;;41.53;22.98;;;7.20;83.60;;;;;;5075459;28;20040;-78
2023/05/05 01:38:15;;;;;;;60.88;29.73;;;7.20;84.10;;;;;;5076105;28;20051;-78
2023/05/05 01:40:45;;;;;;;48.30;24.75;;;7.20;83.70;;;;;;5075223;28;20363;-78
2023/05/05 01:43:14;;;;;;;48.10;25.75;;;7.10;84.40;;;;;;5074727;28;20481;-79
2023/05/05 01:45:41;;;;;;;42.75;23.05;;;7.00;85.50;;;;;;5076364;28;20033;-79
2023/05/05 01:48:08;;;;;;;46.20;19.40;;;7.00;86.70;;;;;;5075897;28;20086;-79
2023/05/05 01:50:35;;;;;;;33.72;16.95;;;7.00;87.40;;;;;;5076171;28;20036;-78
2023/05/05 01:53:03;;;;;;;25.77;14.05;;;6.90;88.70;;;;;;5075774;28;20066;-79
2023/05/05 01:55:31;;;;;;;24.27;13.18;;;6.80;89.50;;;;;;5074882;28;20149;-79
2023/05/05 01:57:58;;;;;;;24.08;14.40;;;6.80;89.40;;;;;;5074542;28;20424;-78
2023/05/05 02:00:25;;;;;;;13.95;8.73;;;6.80;89.30;;;;;;5076289;28;20056;-78
2023/05/05 02:02:53;;;;;;;13.68;8.65;;;6.70;88.90;;;;;;5075631;28;20013;-79
2023/05/05 02:05:21;;;;;;;17.42;8.93;;;6.70;90.10;;;;;;5074730;28;20033;-77
2023/05/05 02:07:48;;;;;;;13.25;8.57;;;6.70;91.20;;;;;;5075673;28;20017;-78
2023/05/05 02:10:14;;;;;;;14.00;9.50;;;6.70;91.70;;;;;;5074614;28;20028;-78
2023/05/05 02:12:43;;;;;;;9.75;6.95;;;6.60;91.90;;;;;;5074162;28;20043;-78
2023/05/05 02:15:10;;;;;;;12.15;8.15;;;6.50;92.80;;;;;;5074604;28;20016;-78
2023/05/05 02:17:36;;;;;;;17.33;8.82;;;6.50;93.20;;;;;;5074108;28;20477;-78
2023/05/05 02:20:03;;;;;;;39.03;19.20;;;6.50;93.00;;;;;;5075760;28;20032;-78
2023/05/05 02:22:30;;;;;;;45.75;29.48;;;6.50;92.60;;;;;;5074057;28;20390;-77
2023/05/05 02:24:55;;;;;;;33.03;21.08;;;6.50;93.30;;;;;;5075586;28;20103;-78
2023/05/05 02:27:23;;;;;;;18.73;11.13;;;6.50;95.20;;;;;;5075636;28;20055;-77
2023/05/05 02:29:57;;;;;;;15.15;9.43;;;6.50;95.60;;;;;;5073850;28;20436;-79
2023/05/05 02:32:32;;;;;;;15.65;9.98;;;6.50;95.60;;;;;;5074568;28;20021;-78
2023/05/05 02:35:03;;;;;;;13.50;9.27;;;6.50;97.20;;;;;;5074403;28;20124;-78
2023/05/05 02:37:32;;;;;;;24.13;12.70;;;6.40;98.00;;;;;;5075111;28;20028;-77
2023/05/05 02:40:04;;;;;;;37.20;15.50;;;6.40;98.70;;;;;;5075265;28;20016;-79
2023/05/05 02:42:35;;;;;;;25.02;10.85;;;6.40;99.50;;;;;;5075120;28;20032;-79
2023/05/05 02:45:08;;;;;;;20.50;9.38;;;6.30;99.90;;;;;;5075436;28;20024;-77
2023/05/05 02:47:35;;;;;;;27.02;11.63;;;6.20;99.90;;;;;;5074851;28;20036;-79
2023/05/05 02:50:02;;;;;;;12.55;7.65;;;6.20;99.90;;;;;;5073999;28;20119;-79
2023/05/05 02:52:27;;;;;;;13.82;8.65;;;6.20;99.90;;;;;;5074833;28;20432;-79
2023/05/05 02:54:53;;;;;;;12.48;7.70;;;6.20;99.90;;;;;;5074984;28;20025;-77
2023/05/05 02:57:21;;;;;;;9.25;6.63;;;6.20;99.90;;;;;;5074980;28;20513;-78
2023/05/05 02:59:55;;;;;;;12.60;6.95;;;6.20;99.90;;;;;;5073289;28;20017;-78
2023/05/05 03:02:31;;;;;;;13.73;7.53;;;6.30;99.90;;;;;;5073659;28;20021;-78
2023/05/05 03:05:03;;;;;;;12.27;7.28;;;6.30;99.90;;;;;;5074857;28;20020;-79
2023/05/05 03:07:58;;;;;;;18.15;10.15;;;6.30;98.70;;;;;;5074537;28;20517;-77
2023/05/05 03:10:29;;;;;;;35.40;19.27;;;6.30;96.40;;;;;;5054337;28;20431;-78
2023/05/05 03:13:00;;;;;;;32.03;15.80;;;6.40;95.60;;;;;;5053165;28;20433;-77
2023/05/05 03:15:44;;;;;;;44.38;19.92;;;6.40;94.00;;;;;;5053230;28;20040;-77
2023/05/05 03:18:11;;;;;;;22.23;11.90;;;6.50;94.70;;;;;;5054258;28;20052;-77
2023/05/05 03:20:39;;;;;;;10.05;6.68;;;6.50;94.80;;;;;;5069751;28;20025;-77
2023/05/05 03:23:05;;;;;;;13.52;6.85;;;6.60;93.60;;;;;;5058469;28;20024;-77
2023/05/05 03:25:44;;;;;;;9.98;6.90;;;6.60;93.70;;;;;;5094606;28;20448;-79
2023/05/05 03:28:10;;;;;;;13.82;7.50;;;6.60;92.90;;;;;;5086617;28;20017;-78
2023/05/05 03:30:36;;;;;;;15.10;10.93;;;6.60;92.10;;;;;;5071621;28;20397;-77
2023/05/05 03:33:02;;;;;;;17.02;9.40;;;6.70;93.20;;;;;;5070095;28;20025;-77
2023/05/05 03:35:27;;;;;;;11.70;7.70;;;6.70;93.10;;;;;;5069719;28;20066;-77
2023/05/05 03:37:54;;;;;;;14.70;8.95;;;6.70;93.70;;;;;;5070208;28;20023;-77
2023/05/05 03:40:20;;;;;;;15.13;8.93;;;6.80;94.50;;;;;;5070619;28;20075;-77
2023/05/05 03:42:46;;;;;;;16.02;9.68;;;6.80;94.20;;;;;;5070282;28;20052;-79
2023/05/05 03:45:11;;;;;;;14.20;9.20;;;6.90;93.80;;;;;;5070899;28;20066;-77
2023/05/05 03:47:37;;;;;;;14.95;10.35;;;7.00;94.00;;;;;;5071644;28;20025;-78
2023/05/05 03:50:03;;;;;;;13.95;9.13;;;7.10;93.50;;;;;;5070686;28;20039;-78
2023/05/05 03:52:28;;;;;;;14.27;8.85;;;7.20;93.20;;;;;;5071503;28;20071;-78
2023/05/05 03:54:54;;;;;;;13.27;8.65;;;7.30;92.10;;;;;;5070652;28;20021;-78
2023/05/05 03:57:20;;;;;;;10.65;7.43;;;7.50;90.00;;;;;;5070533;28;20032;-77
2023/05/05 03:59:45;;;;;;;9.90;6.53;;;7.60;85.90;;;;;;5071655;28;20020;-79
2023/05/05 04:02:11;;;;;;;9.82;6.22;;;7.80;83.20;;;;;;5073791;28;20034;-78
2023/05/05 04:04:36;;;;;;;9.50;7.03;;;8.00;83.10;;;;;;5073361;28;20393;-78
2023/05/05 04:07:02;;;;;;;10.93;7.40;;;8.20;80.70;;;;;;5073598;28;20028;-78
2023/05/05 04:09:27;;;;;;;12.45;7.05;;;8.30;78.20;;;;;;5073265;28;20115;-78
2023/05/05 04:11:53;;;;;;;9.50;7.13;;;8.40;78.10;;;;;;5072370;28;20112;-77
2023/05/05 04:14:19;;;;;;;8.90;6.28;;;8.50;76.80;;;;;;5073278;28;20079;-78
2023/05/05 04:16:44;;;;;;;10.73;6.05;;;8.70;75.40;;;;;;5073618;28;20019;-78
2023/05/05 04:19:11;;;;;;;7.60;5.72;;;8.80;75.10;;;;;;5073210;28;20025;-78
2023/05/05 04:21:37;;;;;;;8.55;5.85;;;8.80;75.10;;;;;;5073647;28;20437;-77
2023/05/05 04:24:03;;;;;;;8.48;6.45;;;8.80;75.10;;;;;;5073014;28;20020;-78
2023/05/05 04:26:28;;;;;;;9.20;6.78;;;8.80;75.00;;;;;;5072038;28;20500;-77
2023/05/05 04:28:54;;;;;;;10.43;6.47;;;8.90;75.70;;;;;;5071623;28;20013;-77
2023/05/05 04:31:20;;;;;;;9.52;6.55;;;8.90;76.50;;;;;;5073319;28;20498;-78
2023/05/05 04:33:46;;;;;;;14.05;7.35;;;8.90;76.30;;;;;;5071558;28;20044;-78
2023/05/05 04:36:11;;;;;;;11.07;7.18;;;9.00;76.10;;;;;;5071689;28;20029;-77
2023/05/05 04:38:37;;;;;;;14.63;7.43;;;9.00;76.40;;;;;;5072878;28;20020;-78
2023/05/05 04:41:06;;;;;;;11.77;7.55;;;9.10;76.40;;;;;;5072030;28;20032;-77
2023/05/05 04:43:31;;;;;;;11.75;7.78;;;9.10;76.20;;;;;;5072873;28;20031;-77
2023/05/05 04:45:57;;;;;;;9.10;7.57;;;9.10;75.40;;;;;;5073265;28;20095;-78
2023/05/05 04:48:23;;;;;;;9.98;7.35;;;9.20;74.10;;;;;;5072445;28;20017;-78
2023/05/05 04:50:48;;;;;;;10.63;8.02;;;9.20;74.00;;;;;;5072986;28;20033;-78
2023/05/05 04:53:14;;;;;;;12.15;8.13;;;9.30;75.00;;;;;;5072781;28;20061;-77
2023/05/05 04:55:40;;;;;;;10.70;7.38;;;9.50;74.60;;;;;;5075302;28;20495;-78
2023/05/05 04:58:06;;;;;;;8.93;6.57;;;9.60;74.40;;;;;;5079195;28;20051;-78
2023/05/05 05:00:31;;;;;;;14.68;7.22;;;9.70;73.40;;;;;;5079587;28;20061;-77
2023/05/05 05:02:57;;;;;;;11.25;8.55;;;9.80;72.70;;;;;;5079342;28;20020;-77
2023/05/05 05:05:22;;;;;;;11.05;6.82;;;10.00;72.10;;;;;;5061983;28;20045;-79
2023/05/05 05:07:48;;;;;;;9.35;6.60;;;10.10;71.40;;;;;;5060044;28;20070;-77
2023/05/05 05:10:14;;;;;;;9.27;6.82;;;10.20;70.60;;;;;;5074910;28;20037;-77
2023/05/05 05:12:39;;;;;;;9.13;7.28;;;10.30;69.50;;;;;;5075001;28;20074;-77
2023/05/05 05:15:06;;;;;;;9.20;6.95;;;10.40;68.90;;;;;;5065783;28;20429;-78
2023/05/05 05:17:31;;;;;;;10.77;6.50;;;10.60;69.70;;;;;;5074900;28;20021;-78
2023/05/05 05:20:00;;;;;;;11.05;7.53;;;10.70;68.70;;;;;;5076046;28;20110;-78
2023/05/05 05:22:26;;;;;;;11.35;6.85;;;10.80;69.00;;;;;;5076523;28;20055;-78
2023/05/05 05:24:51;;;;;;;9.50;6.32;;;10.90;67.50;;;;;;5074745;28;20078;-78
2023/05/05 05:27:17;;;;;;;11.80;7.47;;;11.10;67.50;;;;;;5074990;28;20036;-78
2023/05/05 05:29:42;;;;;;;7.50;6.07;;;11.20;67.60;;;;;;5075331;28;20033;-79
2023/05/05 05:32:08;;;;;;;15.10;8.07;;;11.30;67.70;;;;;;5078025;28;20028;-77
2023/05/05 05:34:34;;;;;;;11.80;6.25;;;11.50;67.00;;;;;;5079007;28;20047;-78
2023/05/05 05:37:00;;;;;;;10.95;6.05;;;11.60;66.60;;;;;;5078965;28;20028;-77
2023/05/05 05:39:25;;;;;;;9.25;5.60;;;11.70;64.90;;;;;;5079416;28;20456;-78
2023/05/05 05:41:52;;;;;;;9.15;6.03;;;11.70;64.70;;;;;;5077973;28;20118;-77
2023/05/05 05:44:17;;;;;;;8.68;5.68;;;11.70;65.30;;;;;;5078056;28;20025;-77
2023/05/05 05:46:43;;;;;;;13.82;5.68;;;11.70;65.20;;;;;;5078998;28;20070;-78
2023/05/05 05:49:09;;;;;;;8.52;5.55;;;11.80;65.60;;;;;;5077963;28;20024;-78
2023/05/05 05:51:34;;;;;;;9.13;5.53;;;11.90;65.10;;;;;;5077898;28;20393;-78
2023/05/05 05:54:00;;;;;;;5.25;4.50;;;12.00;65.10;;;;;;5077951;28;20091;-77
2023/05/05 05:56:25;;;;;;;6.78;4.97;;;12.00;64.70;;;;;;5077338;28;20116;-77
2023/05/05 05:58:51;;;;;;;12.43;5.78;;;12.10;65.00;;;;;;5077468;28;20028;-78
2023/05/05 06:01:17;;;;;;;8.18;5.78;;;12.20;65.50;;;;;;5077274;28;20021;-77
2023/05/05 06:03:43;;;;;;;8.27;6.03;;;12.20;64.50;;;;;;5078195;28;20043;-77
2023/05/05 06:06:08;;;;;;;8.25;4.90;;;12.30;64.80;;;;;;5077934;28;20027;-78
2023/05/05 06:08:34;;;;;;;5.65;5.10;;;12.40;64.80;;;;;;5074360;28;20096;-78
2023/05/05 06:10:59;;;;;;;6.50;4.97;;;12.50;63.90;;;;;;5075771;28;20106;-78
2023/05/05 06:13:25;;;;;;;7.80;4.80;;;12.50;63.50;;;;;;5075512;28;20017;-77
2023/05/05 06:15:51;;;;;;;6.15;4.65;;;12.50;63.60;;;;;;5073910;28;20458;-78
2023/05/05 06:18:16;;;;;;;9.43;5.15;;;12.70;63.80;;;;;;5074746;28;20027;-78
2023/05/05 06:20:42;;;;;;;34.20;9.45;;;12.80;64.10;;;;;;5075735;28;20055;-78
2023/05/05 06:23:08;;;;;;;8.15;4.80;;;13.00;64.60;;;;;;5073943;28;20051;-78
2023/05/05 06:25:33;;;;;;;33.13;7.38;;;13.10;63.60;;;;;;5075652;28;20441;-78
2023/05/05 06:27:59;;;;;;;7.30;4.32;;;13.30;63.80;;;;;;5074068;28;20046;-78
2023/05/05 06:30:25;;;;;;;7.65;4.63;;;13.40;62.00;;;;;;5075677;28;20127;-78
2023/05/05 06:32:53;;;;;;;12.40;4.50;;;13.60;61.80;;;;;;5073553;28;20016;-78
2023/05/05 06:35:18;;;;;;;5.53;3.40;;;13.70;59.50;;;;;;5075593;28;20037;-78
2023/05/05 06:37:44;;;;;;;7.50;4.80;;;13.80;58.90;;;;;;5075006;28;20031;-78
2023/05/05 06:40:10;;;;;;;7.80;3.70;;;13.90;59.20;;;;;;5075540;28;20016;-78
2023/05/05 06:42:36;;;;;;;18.38;5.18;;;14.10;59.50;;;;;;5075177;28;20024;-78
2023/05/05 06:45:01;;;;;;;7.63;4.05;;;14.10;58.60;;;;;;5075285;28;20104;-78
2023/05/05 06:47:27;;;;;;;4.88;3.38;;;14.30;58.30;;;;;;5074932;28;20020;-78
2023/05/05 06:49:53;;;;;;;7.78;4.13;;;14.50;58.20;;;;;;5073848;28;20065;-78
2023/05/05 06:52:18;;;;;;;4.75;3.90;;;14.80;57.30;;;;;;5074994;28;20104;-78
2023/05/05 06:54:44;;;;;;;6.50;3.78;;;15.00;56.20;;;;;;5074901;28;20024;-78
2023/05/05 06:57:10;;;;;;;5.43;4.18;;;15.00;55.40;;;;;;5074632;28;20025;-78
2023/05/05 06:59:35;;;;;;;4.15;3.47;;;15.10;55.60;;;;;;5073580;28;20036;-78
2023/05/05 07:02:01;;;;;;;6.55;3.53;;;15.30;56.10;;;;;;5074406;28;20021;-78
2023/05/05 07:04:27;;;;;;;3.97;3.30;;;15.40;55.20;;;;;;5073468;28;20025;-78
2023/05/05 07:06:54;;;;;;;4.97;3.72;;;15.50;55.30;;;;;;5074353;28;20374;-78
2023/05/05 07:09:20;;;;;;;4.60;3.65;;;15.40;54.30;;;;;;5074672;28;20389;-78
2023/05/05 07:11:45;;;;;;;3.78;2.80;;;15.40;54.60;;;;;;5074593;28;20095;-78
2023/05/05 07:14:11;;;;;;;3.38;3.08;;;15.40;54.50;;;;;;5073155;28;20116;-78
2023/05/05 07:16:37;;;;;;;4.10;3.30;;;15.40;53.40;;;;;;5074859;28;20044;-78
2023/05/05 07:19:06;;;;;;;3.33;2.83;;;15.50;52.10;;;;;;5072660;28;20029;-78
2023/05/05 07:21:35;;;;;;;7.03;4.00;;;15.60;52.00;;;;;;5072811;28;20436;-78
2023/05/05 07:24:04;;;;;;;5.13;2.58;;;15.90;52.30;;;;;;5074417;28;20111;-78
2023/05/05 07:26:30;;;;;;;3.42;2.33;;;16.00;52.20;;;;;;5072960;28;20412;-78
2023/05/05 07:28:57;;;;;;;4.85;3.08;;;16.00;51.80;;;;;;5073820;28;20032;-78
2023/05/05 07:31:23;;;;;;;2.67;2.47;;;16.10;52.50;;;;;;5072665;28;20115;-78
2023/05/05 07:33:49;;;;;;;3.00;2.40;;;16.10;51.40;;;;;;5073767;28;20125;-78
2023/05/05 07:36:16;;;;;;;4.15;2.58;;;16.00;51.10;;;;;;5074031;28;20020;-78
2023/05/05 07:38:42;;;;;;;2.53;2.33;;;16.00;50.80;;;;;;5072546;28;20025;-78
2023/05/05 07:41:10;;;;;;;2.72;1.98;;;16.00;49.80;;;;;;5074168;28;20527;-78
2023/05/05 07:43:36;;;;;;;3.83;2.35;;;16.00;50.10;;;;;;5072509;28;20048;-79
2023/05/05 07:46:02;;;;;;;4.10;2.58;;;16.10;48.90;;;;;;5074162;28;20522;-78
2023/05/05 07:48:28;;;;;;;3.85;2.75;;;16.10;48.70;;;;;;5073775;28;20047;-78
2023/05/05 07:50:54;;;;;;;2.40;2.20;;;16.20;50.10;;;;;;5074111;28;20417;-78
2023/05/05 07:53:20;;;;;;;4.25;2.63;;;16.20;48.40;;;;;;5073735;28;20099;-78
2023/05/05 07:55:45;;;;;;;5.93;2.80;;;16.30;49.70;;;;;;5074043;28;20386;-78
2023/05/05 07:58:11;;;;;;;10.73;2.90;;;16.40;50.30;;;;;;5073544;28;20043;-78
2023/05/05 08:00:37;;;;;;;4.18;2.60;;;16.60;49.00;;;;;;5073892;28;20474;-78
2023/05/05 08:03:03;;;;;;;2.92;2.72;;;16.80;48.80;;;;;;5072200;28;20021;-78
2023/05/05 08:05:28;;;;;;;4.60;2.83;;;16.80;48.30;;;;;;5073461;28;20034;-78
2023/05/05 08:07:54;;;;;;;4.65;3.13;;;17.10;48.40;;;;;;5072352;28;20066;-78
2023/05/05 08:10:21;;;;;;;4.60;2.80;;;17.10;48.20;;;;;;5072163;28;20398;-78
2023/05/05 08:12:47;;;;;;;5.10;2.28;;;17.10;48.60;;;;;;5073323;28;20085;-78
2023/05/05 08:15:12;;;;;;;3.55;2.30;;;17.10;48.90;;;;;;5072482;28;20020;-78
2023/05/05 08:17:46;;;;;;;5.00;2.67;;;17.00;47.70;;;;;;5073211;28;20050;-78
2023/05/05 08:20:12;;;;;;;2.65;2.45;;;17.10;48.10;;;;;;5071918;28;20051;-78
2023/05/05 08:22:38;;;;;;;3.38;2.67;;;17.10;47.60;;;;;;5073235;28;20028;-78
2023/05/05 08:25:04;;;;;;;4.68;2.80;;;17.10;48.60;;;;;;5073341;28;20028;-78
2023/05/05 08:27:34;;;;;;;2.95;2.25;;;17.10;48.60;;;;;;5073153;28;20021;-78
2023/05/05 08:30:00;;;;;;;2.20;2.10;;;17.20;47.90;;;;;;5072890;28;20040;-78
2023/05/05 08:32:25;;;;;;;3.05;2.75;;;17.20;46.90;;;;;;5072889;28;20040;-78
2023/05/05 08:34:51;;;;;;;2.67;2.47;;;17.10;47.60;;;;;;5073278;28;20076;-78
2023/05/05 08:37:17;;;;;;;4.18;2.58;;;17.20;48.40;;;;;;5072986;28;20028;-78
2023/05/05 08:39:43;;;;;;;3.75;2.55;;;17.00;47.40;;;;;;5072303;28;20477;-78
2023/05/05 08:42:09;;;;;;;4.55;2.30;;;16.90;47.10;;;;;;5071511;28;20111;-78
2023/05/05 08:44:35;;;;;;;4.88;2.58;;;17.00;47.00;;;;;;5072990;28;20027;-79
2023/05/05 08:47:01;;;;;;;2.58;2.38;;;16.80;47.50;;;;;;5072809;28;20384;-78
2023/05/05 08:49:36;;;;;;;14.82;3.50;;;17.00;48.40;;;;;;5071573;28;20510;-78
2023/05/05 08:52:06;;;;;;;2.78;2.17;;;17.00;47.00;;;;;;5073156;28;20032;-79
2023/05/05 08:54:36;;;;;;;5.22;2.47;;;17.20;46.90;;;;;;5072900;28;20021;-78
2023/05/05 08:57:05;;;;;;;5.07;2.53;;;17.40;47.40;;;;;;5072850;28;20483;-78
2023/05/05 08:59:32;;;;;;;31.58;5.10;;;17.30;47.30;;;;;;5072697;28;20497;-78
2023/05/05 09:01:59;;;;;;;2.40;2.20;;;17.30;46.40;;;;;;5072770;28;20021;-78
2023/05/05 09:04:25;;;;;;;3.08;2.08;;;17.30;45.20;;;;;;5072734;28;20497;-78
2023/05/05 09:06:51;;;;;;;4.95;2.17;;;17.20;43.90;;;;;;5073004;28;20022;-78
2023/05/05 09:09:18;;;;;;;3.15;2.20;;;17.30;42.80;;;;;;5072512;28;20017;-78
2023/05/05 09:11:44;;;;;;;2.50;2.25;;;17.30;41.30;;;;;;5072993;28;20056;-78
2023/05/05 09:14:10;;;;;;;4.93;2.33;;;17.40;43.60;;;;;;5071475;28;20040;-78
2023/05/05 09:16:42;;;;;;;2.90;1.90;;;17.40;42.10;;;;;;5073027;28;20082;-78
2023/05/05 09:19:07;;;;;;;2.47;2.23;;;17.30;42.40;;;;;;5072613;28;20056;-78
2023/05/05 09:21:33;;;;;;;3.10;2.83;;;17.40;42.80;;;;;;5072966;28;20098;-78
2023/05/05 09:24:10;;;;;;;3.13;2.75;;;17.60;45.70;;;;;;5072469;28;20016;-78
2023/05/05 09:26:42;;;;;;;5.78;2.38;;;17.60;44.10;;;;;;5071604;28;20052;-78
2023/05/05 09:29:07;;;;;;;4.28;2.95;;;17.70;43.50;;;;;;5072578;28;20040;-78
2023/05/05 09:31:35;;;;;;;4.10;2.85;;;17.60;43.60;;;;;;5072949;28;20473;-78
2023/05/05 09:34:02;;;;;;;2.90;2.70;;;17.50;43.00;;;;;;5072250;28;20037;-78
2023/05/05 09:36:47;;;;;;;17.65;4.10;;;17.50;43.40;;;;;;5071113;28;20112;-78
2023/05/05 09:39:18;;;;;;;3.40;2.95;;;17.60;43.40;;;;;;5071469;28;20024;-78
2023/05/05 09:41:44;;;;;;;5.25;3.03;;;17.60;43.40;;;;;;5072024;28;20040;-78
2023/05/05 09:44:11;;;;;;;4.10;2.92;;;17.60;44.10;;;;;;5076135;28;20427;-78
2023/05/05 09:46:38;;;;;;;3.05;2.75;;;17.50;44.80;;;;;;5076500;28;20027;-78
2023/05/05 09:49:17;;;;;;;5.75;3.30;;;17.60;45.50;;;;;;5076071;28;20023;-78
2023/05/05 09:51:46;;;;;;;4.60;3.08;;;17.60;45.40;;;;;;5074727;28;20028;-78
2023/05/05 09:54:26;;;;;;;3.72;3.25;;;17.80;46.50;;;;;;5074887;28;20038;-78
2023/05/05 09:56:53;;;;;;;5.47;3.35;;;17.80;46.70;;;;;;5075893;28;20101;-78
2023/05/05 09:59:19;;;;;;;3.65;2.88;;;17.80;47.50;;;;;;5076239;28;20031;-78
2023/05/05 10:01:45;;;;;;;18.77;4.53;;;18.00;47.90;;;;;;5075773;28;20024;-78
2023/05/05 10:04:28;;;;;;;5.65;2.97;;;17.80;45.00;;;;;;5075991;28;20427;-78
2023/05/05 10:06:57;;;;;;;6.03;2.72;;;17.90;46.60;;;;;;5074258;28;20577;-78
2023/05/05 10:09:24;;;;;;;12.25;2.90;;;17.90;46.70;;;;;;5075873;28;20032;-78
2023/05/05 10:11:51;;;;;;;3.70;2.95;;;17.80;45.00;;;;;;5074164;28;20047;-78
2023/05/05 10:14:18;;;;;;;3.80;2.63;;;17.80;43.60;;;;;;5075784;28;20025;-78
2023/05/05 10:16:49;;;;;;;8.57;3.28;;;18.00;45.50;;;;;;5074590;28;20027;-78
2023/05/05 10:19:17;;;;;;;3.92;2.70;;;17.90;45.50;;;;;;5075732;28;20021;-78
2023/05/05 10:21:53;;;;;;;3.70;3.28;;;18.00;45.70;;;;;;5074494;28;20024;-78
2023/05/05 10:24:25;;;;;;;6.85;3.42;;;18.00;46.60;;;;;;5075344;28;20017;-78
2023/05/05 10:26:52;;;;;;;5.53;2.47;;;18.10;46.50;;;;;;5075672;28;20021;-78
2023/05/05 10:30:02;;;;;;;3.92;2.58;;;18.20;45.90;;;;;;5073862;28;20029;-78
2023/05/05 10:32:42;;;;;;;4.03;2.70;;;18.20;43.10;;;;;;5073200;28;20575;-78
2023/05/05 10:35:09;;;;;;;5.57;3.35;;;18.20;44.10;;;;;;5074183;28;20048;-78
2023/05/05 10:37:37;;;;;;;6.97;3.53;;;18.40;44.90;;;;;;5054440;28;20049;-79
2023/05/05 10:40:03;;;;;;;13.98;3.97;;;18.30;44.60;;;;;;5069076;28;20127;-79
2023/05/05 10:42:30;;;;;;;4.90;3.13;;;18.20;45.30;;;;;;5071922;28;20451;-78
2023/05/05 10:44:56;;;;;;;3.85;3.15;;;18.00;44.80;;;;;;5073044;28;20071;-79
2023/05/05 10:47:23;;;;;;;5.72;3.70;;;18.10;44.90;;;;;;5072441;28;20032;-79
2023/05/05 10:50:33;;;;;;;3.72;2.55;;;18.10;44.80;;;;;;5073343;28;20036;-79
2023/05/05 10:53:27;;;;;;;6.85;4.50;;;18.30;45.20;;;;;;5070783;28;20066;-79
2023/05/05 10:56:05;;;;;;;5.03;3.85;;;18.30;46.20;;;;;;5072194;28;20103;-78
2023/05/05 10:58:35;;;;;;;3.55;3.10;;;18.40;46.60;;;;;;5073998;28;20052;-79
2023/05/05 11:01:02;;;;;;;5.35;4.38;;;18.50;46.20;;;;;;5071824;28;20032;-79
2023/05/05 11:03:28;;;;;;;6.40;3.80;;;18.50;45.80;;;;;;5070930;28;20390;-78
2023/05/05 11:06:03;;;;;;;4.82;3.40;;;18.70;46.20;;;;;;5071165;28;20025;-79
2023/05/05 11:08:39;;;;;;;4.72;3.10;;;18.80;45.90;;;;;;5068825;28;20032;-79
2023/05/05 11:11:05;;;;;;;4.57;3.60;;;18.60;46.30;;;;;;5070650;28;20025;-79
2023/05/05 11:13:31;;;;;;;5.05;3.25;;;18.60;47.10;;;;;;5070954;28;20028;-79
2023/05/05 11:15:58;;;;;;;6.10;2.97;;;18.60;47.90;;;;;;5072423;28;20029;-78
2023/05/05 11:18:32;;;;;;;5.63;3.67;;;18.60;47.40;;;;;;5072022;28;20098;-78
2023/05/05 11:21:00;;;;;;;4.10;3.17;;;18.50;46.80;;;;;;5072367;28;20040;-78
2023/05/05 11:23:27;;;;;;;3.78;3.15;;;18.30;46.50;;;;;;5069126;28;20027;-78
2023/05/05 11:25:54;;;;;;;3.45;3.15;;;18.40;46.00;;;;;;5071724;28;20058;-79
2023/05/05 11:28:24;;;;;;;4.35;3.35;;;18.30;46.20;;;;;;5072030;28;20458;-79
2023/05/05 11:31:09;;;;;;;3.42;2.50;;;18.20;45.30;;;;;;5073364;28;20044;-78
2023/05/05 11:33:38;;;;;;;3.28;3.03;;;18.30;46.30;;;;;;5071916;28;20037;-78
2023/05/05 11:36:05;;;;;;;6.20;2.88;;;18.40;47.80;;;;;;5071361;28;20060;-78
2023/05/05 11:38:42;;;;;;;3.65;2.90;;;18.30;45.70;;;;;;5069881;28;20029;-78
2023/05/05 11:41:26;;;;;;;3.45;2.70;;;18.10;44.50;;;;;;5068876;28;20120;-78
2023/05/05 11:44:30;;;;;;;8.75;3.70;;;18.20;44.00;;;;;;5068280;28;20021;-78
2023/05/05 11:46:56;;;;;;;3.08;2.38;;;18.50;44.80;;;;;;5069136;28;20067;-79
2023/05/05 11:49:32;;;;;;;3.58;2.47;;;18.60;45.20;;;;;;5071271;28;20075;-78
2023/05/05 11:51:59;;;;;;;3.80;2.70;;;18.60;45.00;;;;;;5072786;28;20064;-79
2023/05/05 11:54:26;;;;;;;3.20;2.75;;;18.80;46.10;;;;;;5068518;28;20059;-78
2023/05/05 11:57:04;;;;;;;4.03;2.70;;;18.70;45.60;;;;;;5089797;28;20454;-79
2023/05/05 11:59:31;;;;;;;3.33;3.03;;;18.80;45.20;;;;;;5075958;28;20033;-78
2023/05/05 12:01:57;;;;;;;5.53;2.47;;;18.80;45.80;;;;;;5069786;28;20535;-78
2023/05/05 12:04:23;;;;;;;4.63;2.65;;;18.80;45.70;;;;;;5065569;28;20040;-79
2023/05/05 12:06:49;;;;;;;4.05;2.55;;;18.90;45.10;;;;;;5070196;28;20020;-79
2023/05/05 12:09:15;;;;;;;8.10;2.80;;;19.10;45.10;;;;;;5070848;28;20035;-78
2023/05/05 12:11:51;;;;;;;4.60;2.67;;;19.10;44.30;;;;;;5071991;28;21493;-78
2023/05/05 12:14:17;;;;;;;2.90;2.60;;;19.10;45.90;;;;;;5072169;28;20107;-79
2023/05/05 12:17:07;;;;;;;2.83;2.55;;;19.10;45.60;;;;;;5072301;28;20117;-78
2023/05/05 12:19:33;;;;;;;3.25;2.70;;;19.10;44.30;;;;;;5070173;28;20068;-79
2023/05/05 12:22:03;;;;;;;3.22;2.50;;;19.30;45.10;;;;;;5071673;28;20021;-79
2023/05/05 12:24:29;;;;;;;3.17;2.60;;;19.30;44.40;;;;;;5068717;28;20546;-78
2023/05/05 12:27:05;;;;;;;4.55;2.75;;;19.50;45.00;;;;;;5071909;28;20016;-78
2023/05/05 12:29:31;;;;;;;2.38;2.17;;;19.60;44.00;;;;;;5070718;28;20044;-79
2023/05/05 12:31:58;;;;;;;4.10;2.60;;;19.60;43.90;;;;;;5070431;28;20021;-78
2023/05/05 12:34:25;;;;;;;2.53;2.10;;;19.50;43.90;;;;;;5071502;28;20425;-78
2023/05/05 12:36:50;;;;;;;2.63;2.40;;;19.60;43.60;;;;;;5069536;28;20035;-78
2023/05/05 12:39:16;;;;;;;3.45;2.28;;;19.40;43.40;;;;;;5071625;28;20016;-78
2023/05/05 12:41:42;;;;;;;5.35;2.17;;;19.30;42.60;;;;;;5070354;28;20020;-78
2023/05/05 12:44:07;;;;;;;5.38;2.28;;;19.30;42.20;;;;;;5071060;28;20033;-78
2023/05/05 12:46:47;;;;;;;11.23;3.08;;;19.20;43.70;;;;;;5071624;28;20021;-78
2023/05/05 12:49:13;;;;;;;2.65;2.30;;;19.10;45.40;;;;;;5072340;28;20021;-78
2023/05/05 12:51:52;;;;;;;2.60;2.40;;;18.70;42.80;;;;;;5072926;28;20486;-78
2023/05/05 12:54:18;;;;;;;2.42;2.08;;;18.80;44.10;;;;;;5073100;28;20032;-77